Time,TemperatureF,DewpointF,PressureIn,WindDirection,WindDirectionDegrees,WindSpeedMPH,WindSpeedGustMPH,Humidity,HourlyPrecipIn,Conditions,Clouds,dailyrainin,SoftwareType,DateUTC
2013-02-26 00:01:00,73.0,70.0,29.77,SE,142,2.0,5.0,90,0.00,,,0.01,,2013-02-26 05:01:00,
2013-02-26 00:12:00,73.0,70.0,29.76,SE,144,4.0,9.0,90,0.00,,,0.01,,2013-02-26 05:12:00,
2013-02-26 00:22:00,73.0,70.0,29.76,SE,144,4.0,9.0,90,0.00,,,0.01,,2013-02-26 05:22:00,
2013-02-26 00:32:00,73.0,70.0,29.76,SSE,153,2.0,8.0,90,0.00,,,0.01,,2013-02-26 05:32:00,
2013-02-26 00:43:00,73.0,70.0,29.76,SSE,153,2.0,8.0,90,0.00,,,0.01,,2013-02-26 05:43:00,
2013-02-26 00:52:00,73.0,70.0,29.76,South,173,3.0,6.0,90,0.00,,,0.01,,2013-02-26 05:52:00,
2013-02-26 01:02:00,73.0,70.0,29.75,SSE,167,1.0,5.0,90,0.00,,,0.01,,2013-02-26 06:02:00,
2013-02-26 01:11:00,73.0,70.0,29.75,SSE,167,1.0,5.0,90,0.00,,,0.01,,2013-02-26 06:11:00,
2013-02-26 01:21:00,73.0,70.0,29.75,ESE,111,3.0,6.0,90,0.00,,,0.01,,2013-02-26 06:21:00,
2013-02-26 01:32:00,73.0,70.0,29.75,SSE,160,4.0,10.0,90,0.00,,,0.01,,2013-02-26 06:32:00,
2013-02-26 01:42:00,73.0,70.0,29.75,SSE,160,4.0,10.0,90,0.00,,,0.01,,2013-02-26 06:42:00,
2013-02-26 01:52:00,73.0,70.0,29.75,ESE,109,3.0,7.0,91,0.00,,,0.01,,2013-02-26 06:52:00,
2013-02-26 02:01:00,73.0,70.0,29.74,East,83,1.0,6.0,91,0.00,,,0.01,,2013-02-26 07:01:00,
2013-02-26 02:11:00,73.0,70.0,29.74,East,83,1.0,6.0,91,0.00,,,0.01,,2013-02-26 07:11:00,
2013-02-26 02:22:00,73.0,70.0,29.74,SE,125,3.0,6.0,91,0.00,,,0.01,,2013-02-26 07:22:00,
2013-02-26 02:32:00,73.0,70.0,29.74,SSE,163,1.0,8.0,91,0.00,,,0.01,,2013-02-26 07:32:00,
2013-02-26 02:42:00,73.0,70.0,29.74,SSE,163,1.0,8.0,91,0.00,,,0.01,,2013-02-26 07:42:00,
2013-02-26 02:52:00,73.0,70.0,29.73,South,169,2.0,7.0,91,0.00,,,0.01,,2013-02-26 07:52:00,
2013-02-26 03:02:00,73.0,70.0,29.72,South,180,4.0,6.0,91,0.00,,,0.01,,2013-02-26 08:02:00,
2013-02-26 03:11:00,73.0,70.0,29.72,SE,130,2.0,9.0,91,0.00,,,0.01,,2013-02-26 08:11:00,
2013-02-26 03:21:00,73.0,70.0,29.72,SE,130,2.0,9.0,91,0.00,,,0.01,,2013-02-26 08:21:00,
2013-02-26 03:32:00,73.0,70.0,29.72,ESE,120,1.0,6.0,91,0.00,,,0.01,,2013-02-26 08:32:00,
2013-02-26 03:42:00,73.0,70.0,29.72,ESE,120,1.0,6.0,91,0.00,,,0.01,,2013-02-26 08:42:00,
2013-02-26 03:52:00,73.0,70.0,29.71,South,178,3.0,8.0,91,0.00,,,0.01,,2013-02-26 08:52:00,
2013-02-26 04:02:00,73.0,70.0,29.70,SSE,151,3.0,8.0,90,0.00,,,0.00,,2013-02-26 09:02:00,
2013-02-26 04:11:00,73.0,70.0,29.70,SSE,151,3.0,8.0,90,0.00,,,0.00,,2013-02-26 09:11:00,
2013-02-26 04:21:00,74.0,70.0,29.70,SE,140,4.0,12.0,87,0.00,,,0.00,,2013-02-26 09:21:00,
2013-02-26 04:32:00,74.0,69.0,29.69,South,173,3.0,12.0,85,0.00,,,0.00,,2013-02-26 09:32:00,
2013-02-26 04:43:00,74.0,69.0,29.69,South,173,3.0,12.0,85,0.00,,,0.00,,2013-02-26 09:43:00,
2013-02-26 04:52:00,75.0,70.0,29.70,SSE,154,4.0,11.0,85,0.00,,,0.00,,2013-02-26 09:52:00,
2013-02-26 05:01:00,75.0,71.0,29.70,SE,126,4.0,9.0,86,0.00,,,0.00,,2013-02-26 10:01:00,
2013-02-26 05:11:00,75.0,71.0,29.70,SE,126,4.0,9.0,86,0.00,,,0.00,,2013-02-26 10:11:00,
2013-02-26 05:21:00,75.0,71.0,29.71,SSW,202,3.0,8.0,86,0.00,,,0.00,,2013-02-26 10:21:00,
2013-02-26 05:31:00,76.0,71.0,29.72,South,173,3.0,13.0,85,0.00,,,0.00,,2013-02-26 10:31:00,
2013-02-26 05:42:00,76.0,71.0,29.72,South,173,3.0,13.0,85,0.00,,,0.00,,2013-02-26 10:42:00,
2013-02-26 05:52:00,76.0,71.0,29.71,South,185,4.0,14.0,84,0.00,,,0.00,,2013-02-26 10:52:00,
2013-02-26 06:01:00,76.0,71.0,29.72,SE,140,6.0,14.0,84,0.00,,,0.00,,2013-02-26 11:01:00,
2013-02-26 06:12:00,76.0,71.0,29.72,SE,140,6.0,14.0,84,0.00,,,0.00,,2013-02-26 11:12:00,
2013-02-26 06:22:00,76.0,71.0,29.72,SSE,148,5.0,15.0,84,0.00,,,0.00,,2013-02-26 11:22:00,
2013-02-26 06:32:00,76.0,71.0,29.72,ESE,111,5.0,14.0,85,0.00,,,0.00,,2013-02-26 11:32:00,
2013-02-26 06:42:00,76.0,71.0,29.72,ESE,111,5.0,14.0,85,0.00,,,0.00,,2013-02-26 11:42:00,
2013-02-26 06:53:00,76.0,71.0,29.73,ESE,117,7.0,17.0,85,0.00,,,0.00,,2013-02-26 11:53:00,
2013-02-26 07:02:00,76.0,72.0,29.73,SSW,200,8.0,15.0,86,0.00,,,0.00,,2013-02-26 12:02:00,
2013-02-26 07:11:00,76.0,72.0,29.73,SSW,200,8.0,15.0,86,0.00,,,0.00,,2013-02-26 12:11:00,
2013-02-26 07:22:00,76.0,72.0,29.73,SSE,161,4.0,13.0,86,0.00,,,0.00,,2013-02-26 12:22:00,
2013-02-26 07:32:00,76.0,72.0,29.73,South,191,4.0,17.0,86,0.00,,,0.00,,2013-02-26 12:32:00,
2013-02-26 07:42:00,76.0,72.0,29.73,South,191,4.0,17.0,86,0.00,,,0.00,,2013-02-26 12:42:00,
2013-02-26 07:53:00,76.0,72.0,29.73,South,191,8.0,17.0,86,0.00,,,0.00,,2013-02-26 12:53:00,
2013-02-26 08:02:00,76.0,72.0,29.74,SW,224,4.0,16.0,87,0.00,,,0.00,,2013-02-26 13:02:00,
2013-02-26 08:11:00,76.0,72.0,29.74,SW,224,4.0,16.0,87,0.00,,,0.00,,2013-02-26 13:11:00,
2013-02-26 08:22:00,77.0,72.0,29.73,SSW,207,8.0,17.0,86,0.00,,,0.00,,2013-02-26 13:22:00,
2013-02-26 08:32:00,77.0,72.0,29.74,South,188,5.0,19.0,85,0.00,,,0.00,,2013-02-26 13:32:00,
2013-02-26 08:42:00,77.0,72.0,29.74,South,188,5.0,19.0,85,0.00,,,0.00,,2013-02-26 13:42:00,
2013-02-26 08:52:00,77.0,72.0,29.74,SSW,205,8.0,22.0,84,0.00,,,0.00,,2013-02-26 13:52:00,
2013-02-26 09:01:00,78.0,72.0,29.74,SSW,195,5.0,22.0,83,0.00,,,0.00,,2013-02-26 14:01:00,
2013-02-26 09:11:00,78.0,72.0,29.74,SSW,195,5.0,22.0,83,0.00,,,0.00,,2013-02-26 14:11:00,
2013-02-26 09:21:00,78.0,72.0,29.75,SSE,163,4.0,25.0,82,0.00,,,0.00,,2013-02-26 14:21:00,
2013-02-26 09:32:00,78.0,72.0,29.75,West,276,6.0,18.0,81,0.00,,,0.00,,2013-02-26 14:32:00,
2013-02-26 09:42:00,78.0,72.0,29.75,West,276,6.0,18.0,81,0.00,,,0.00,,2013-02-26 14:42:00,
2013-02-26 09:52:00,78.0,72.0,29.76,WSW,238,5.0,19.0,82,0.00,,,0.00,,2013-02-26 14:52:00,
2013-02-26 10:02:00,77.0,71.0,29.79,SSW,196,7.0,17.0,83,0.00,,,0.00,,2013-02-26 15:02:00,
2013-02-26 10:11:00,77.0,71.0,29.79,SSW,196,7.0,17.0,83,0.00,,,0.00,,2013-02-26 15:11:00,
2013-02-26 10:22:00,77.0,72.0,29.80,SW,223,8.0,16.0,84,0.00,,,0.00,,2013-02-26 15:22:00,
2013-02-26 10:32:00,77.0,72.0,29.80,South,188,6.0,20.0,85,0.00,,,0.00,,2013-02-26 15:32:00,
2013-02-26 10:42:00,77.0,72.0,29.80,South,188,6.0,20.0,85,0.00,,,0.00,,2013-02-26 15:42:00,
2013-02-26 10:52:00,76.0,72.0,29.80,SSW,213,8.0,20.0,86,0.00,,,0.00,,2013-02-26 15:52:00,
2013-02-26 11:01:00,76.0,72.0,29.80,SW,227,7.0,16.0,88,0.00,,,0.00,,2013-02-26 16:01:00,
2013-02-26 11:11:00,76.0,72.0,29.80,SW,227,7.0,16.0,88,0.00,,,0.00,,2013-02-26 16:11:00,
2013-02-26 11:22:00,75.0,72.0,29.81,SSW,207,5.0,16.0,89,0.01,,,0.01,,2013-02-26 16:22:00,
2013-02-26 11:32:00,75.0,72.0,29.80,SSW,199,8.0,15.0,90,0.04,,,0.04,,2013-02-26 16:32:00,
2013-02-26 11:42:00,75.0,72.0,29.80,SSW,199,8.0,15.0,90,0.04,,,0.04,,2013-02-26 16:42:00,
2013-02-26 11:52:00,75.0,72.0,29.80,NE,46,4.0,15.0,91,0.07,,,0.07,,2013-02-26 16:52:00,
2013-02-26 12:01:00,75.0,73.0,29.80,SW,215,6.0,20.0,92,0.13,,,0.13,,2013-02-26 17:01:00,
2013-02-26 12:11:00,70.0,67.0,29.81,West,277,7.0,17.0,91,0.29,,,0.30,,2013-02-26 17:11:00,
2013-02-26 12:22:00,70.0,67.0,29.81,West,277,7.0,17.0,91,0.29,,,0.30,,2013-02-26 17:22:00,
2013-02-26 12:32:00,68.0,65.0,29.81,WNW,294,5.0,10.0,91,0.31,,,0.35,,2013-02-26 17:32:00,
2013-02-26 12:42:00,68.0,65.0,29.81,WNW,294,5.0,10.0,91,0.31,,,0.35,,2013-02-26 17:42:00,
2013-02-26 12:52:00,68.0,65.0,29.81,WSW,244,5.0,9.0,91,0.29,,,0.36,,2013-02-26 17:52:00,
2013-02-26 13:02:00,69.0,67.0,29.80,West,271,4.0,7.0,92,0.25,,,0.38,,2013-02-26 18:02:00,
2013-02-26 13:12:00,69.0,67.0,29.80,West,271,4.0,7.0,92,0.25,,,0.38,,2013-02-26 18:12:00,
2013-02-26 13:21:00,68.0,66.0,29.80,West,273,3.0,9.0,92,0.11,,,0.41,,2013-02-26 18:21:00,
2013-02-26 13:32:00,68.0,66.0,29.80,West,269,4.0,7.0,93,0.08,,,0.43,,2013-02-26 18:32:00,
2013-02-26 13:42:00,68.0,66.0,29.80,West,269,4.0,7.0,93,0.08,,,0.43,,2013-02-26 18:42:00,
2013-02-26 13:52:00,69.0,67.0,29.78,SSW,205,3.0,4.0,94,0.10,,,0.46,,2013-02-26 18:52:00,
2013-02-26 14:01:00,70.0,68.0,29.77,SE,125,4.0,8.0,94,0.08,,,0.46,,2013-02-26 19:01:00,
2013-02-26 14:11:00,70.0,68.0,29.77,SE,125,4.0,8.0,94,0.08,,,0.46,,2013-02-26 19:11:00,
2013-02-26 14:22:00,70.0,68.0,29.76,SSE,152,3.0,9.0,94,0.06,,,0.47,,2013-02-26 19:22:00,
2013-02-26 14:32:00,71.0,69.0,29.76,SSW,207,2.0,7.0,94,0.03,,,0.47,,2013-02-26 19:32:00,
2013-02-26 14:42:00,71.0,69.0,29.76,SSW,207,2.0,7.0,94,0.03,,,0.47,,2013-02-26 19:42:00,
2013-02-26 14:52:00,73.0,70.0,29.77,SW,225,5.0,14.0,91,0.01,,,0.47,,2013-02-26 19:52:00,
2013-02-26 15:01:00,74.0,70.0,29.77,SW,233,6.0,13.0,87,0.01,,,0.47,,2013-02-26 20:01:00,
2013-02-26 15:11:00,74.0,70.0,29.77,SW,233,6.0,13.0,87,0.01,,,0.47,,2013-02-26 20:11:00,
2013-02-26 15:22:00,74.0,68.0,29.77,WSW,242,8.0,13.0,83,0.00,,,0.47,,2013-02-26 20:22:00,
2013-02-26 15:32:00,75.0,68.0,29.78,WSW,245,7.0,16.0,80,0.00,,,0.47,,2013-02-26 20:32:00,
2013-02-26 15:41:00,75.0,68.0,29.78,WSW,245,7.0,16.0,80,0.00,,,0.47,,2013-02-26 20:41:00,
2013-02-26 15:52:00,75.0,67.0,29.78,WNW,293,4.0,10.0,77,0.00,,,0.47,,2013-02-26 20:52:00,
2013-02-26 16:01:00,75.0,67.0,29.78,WSW,253,5.0,10.0,76,0.00,,,0.47,,2013-02-26 21:01:00,
2013-02-26 16:11:00,75.0,67.0,29.78,WSW,253,5.0,10.0,76,0.00,,,0.47,,2013-02-26 21:11:00,
2013-02-26 16:21:00,74.0,66.0,29.78,WSW,253,5.0,9.0,76,0.00,,,0.47,,2013-02-26 21:21:00,
2013-02-26 16:31:00,74.0,66.0,29.78,WSW,256,6.0,10.0,76,0.00,,,0.47,,2013-02-26 21:31:00,
2013-02-26 16:41:00,74.0,66.0,29.78,WSW,256,6.0,10.0,76,0.00,,,0.47,,2013-02-26 21:41:00,
2013-02-26 16:51:00,74.0,66.0,29.79,West,271,5.0,9.0,76,0.00,,,0.47,,2013-02-26 21:51:00,
2013-02-26 17:01:00,74.0,66.0,29.78,WSW,256,6.0,10.0,76,0.00,,,0.47,,2013-02-26 22:01:00,
2013-02-26 17:11:00,74.0,66.0,29.79,West,275,5.0,10.0,76,0.00,,,0.47,,2013-02-26 22:11:00,
2013-02-26 17:21:00,74.0,66.0,29.79,West,275,5.0,10.0,76,0.00,,,0.47,,2013-02-26 22:21:00,
2013-02-26 17:32:00,73.0,65.0,29.79,West,281,6.0,10.0,76,0.00,,,0.47,,2013-02-26 22:32:00,
2013-02-26 17:41:00,73.0,65.0,29.79,West,281,6.0,10.0,76,0.00,,,0.47,,2013-02-26 22:41:00,
2013-02-26 17:52:00,73.0,65.0,29.79,WSW,254,6.0,9.0,76,0.00,,,0.47,,2013-02-26 22:52:00,
2013-02-26 18:01:00,72.0,65.0,29.80,West,265,5.0,10.0,78,0.00,,,0.47,,2013-02-26 23:01:00,
2013-02-26 18:11:00,72.0,65.0,29.80,West,265,5.0,10.0,78,0.00,,,0.47,,2013-02-26 23:11:00,
2013-02-26 18:21:00,72.0,65.0,29.80,West,262,3.0,8.0,79,0.00,,,0.47,,2013-02-26 23:21:00,
2013-02-26 18:32:00,72.0,65.0,29.80,West,269,2.0,7.0,80,0.00,,,0.47,,2013-02-26 23:32:00,
2013-02-26 18:42:00,72.0,65.0,29.80,West,269,2.0,7.0,80,0.00,,,0.47,,2013-02-26 23:42:00,
2013-02-26 18:52:00,71.0,65.0,29.81,WSW,258,2.0,6.0,81,0.00,,,0.47,,2013-02-26 23:52:00,
2013-02-26 19:01:00,71.0,65.0,29.81,WSW,257,2.0,7.0,82,0.00,,,0.47,,2013-02-27 00:01:00,
2013-02-26 19:11:00,71.0,65.0,29.81,WSW,257,2.0,7.0,82,0.00,,,0.47,,2013-02-27 00:11:00,
2013-02-26 19:22:00,70.0,65.0,29.82,SSW,213,2.0,5.0,83,0.00,,,0.47,,2013-02-27 00:22:00,
2013-02-26 19:32:00,70.0,65.0,29.82,SW,215,1.0,4.0,83,0.00,,,0.47,,2013-02-27 00:32:00,
2013-02-26 19:42:00,70.0,65.0,29.82,SW,215,1.0,4.0,83,0.00,,,0.47,,2013-02-27 00:42:00,
2013-02-26 19:52:00,70.0,65.0,29.83,WSW,244,1.0,5.0,84,0.00,,,0.47,,2013-02-27 00:52:00,
2013-02-26 20:01:00,70.0,66.0,29.83,WSW,244,1.0,4.0,86,0.00,,,0.47,,2013-02-27 01:01:00,
2013-02-26 20:11:00,70.0,66.0,29.83,WSW,244,1.0,4.0,86,0.00,,,0.47,,2013-02-27 01:11:00,
2013-02-26 20:22:00,70.0,66.0,29.83,WSW,244,0.0,3.0,86,0.00,,,0.47,,2013-02-27 01:22:00,
2013-02-26 20:32:00,70.0,66.0,29.84,West,265,3.0,5.0,87,0.00,,,0.47,,2013-02-27 01:32:00,
2013-02-26 20:42:00,70.0,66.0,29.84,West,265,3.0,5.0,87,0.00,,,0.47,,2013-02-27 01:42:00,
2013-02-26 20:52:00,70.0,66.0,29.85,SSW,212,2.0,6.0,88,0.00,,,0.47,,2013-02-27 01:52:00,
2013-02-26 21:01:00,69.0,65.0,29.85,SW,231,2.0,5.0,88,0.00,,,0.47,,2013-02-27 02:01:00,
2013-02-26 21:15:00,69.0,65.0,29.85,SW,231,2.0,5.0,88,0.00,,,0.47,,2013-02-27 02:15:00,
2013-02-26 21:24:00,69.0,66.0,29.85,SW,236,1.0,4.0,89,0.00,,,0.47,,2013-02-27 02:24:00,
2013-02-26 21:32:00,69.0,65.0,29.85,SSW,208,1.0,3.0,88,0.00,,,0.47,,2013-02-27 02:32:00,
2013-02-26 21:42:00,69.0,65.0,29.85,SSW,208,1.0,3.0,88,0.00,,,0.47,,2013-02-27 02:42:00,
2013-02-26 21:52:00,68.0,65.0,29.86,WSW,238,2.0,4.0,89,0.00,,,0.47,,2013-02-27 02:52:00,
2013-02-26 22:02:00,68.0,65.0,29.86,SW,225,2.0,3.0,89,0.00,,,0.47,,2013-02-27 03:02:00,
2013-02-26 22:11:00,68.0,65.0,29.86,SW,225,2.0,3.0,89,0.00,,,0.47,,2013-02-27 03:11:00,
2013-02-26 22:22:00,68.0,65.0,29.87,SW,215,0.0,4.0,89,0.00,,,0.47,,2013-02-27 03:22:00,
2013-02-26 22:32:00,67.0,64.0,29.86,SSW,209,0.0,3.0,89,0.00,,,0.47,,2013-02-27 03:32:00,
2013-02-26 22:42:00,67.0,64.0,29.86,SSW,209,0.0,3.0,89,0.00,,,0.47,,2013-02-27 03:42:00,
2013-02-26 22:52:00,67.0,64.0,29.86,SW,219,2.0,4.0,90,0.00,,,0.47,,2013-02-27 03:52:00,
2013-02-26 23:01:00,67.0,64.0,29.87,SW,219,1.0,3.0,90,0.00,,,0.47,,2013-02-27 04:01:00,
2013-02-26 23:11:00,67.0,64.0,29.87,SW,219,1.0,3.0,90,0.00,,,0.47,,2013-02-27 04:11:00,
2013-02-26 23:22:00,67.0,64.0,29.87,WNW,284,2.0,4.0,90,0.00,,,0.47,,2013-02-27 04:22:00,
2013-02-26 23:32:00,67.0,64.0,29.88,WSW,244,2.0,5.0,91,0.00,,,0.47,,2013-02-27 04:32:00,
2013-02-26 23:42:00,67.0,64.0,29.88,WSW,244,2.0,5.0,91,0.00,,,0.47,,2013-02-27 04:42:00,
2013-02-26 23:52:00,68.0,65.0,29.88,West,281,3.0,7.0,90,0.00,,,0.47,,2013-02-27 04:52:00,